Time;durP1;ratioP1;P1;durP2;ratioP2;P2;SDS_P1;SDS_P2;PMS_P1;PMS_P2;Temp;Humidity;BMP_temperature;BMP_pressure;BME280_temperature;BME280_humidity;BME280_pressure;Samples;Min_cycle;Max_cycle;Signal;HPM_P1;HPM_P2
2023/08/04 00:00:14;;;;;;;2.30;0.93;;;24.00;53.70;;;;;;5058044;28;20028;-64
2023/08/04 00:02:40;;;;;;;2.55;0.98;;;24.00;53.70;;;;;;5073458;28;20034;-64
2023/08/04 00:05:08;;;;;;;3.45;0.88;;;24.00;53.70;;;;;;5056291;28;20384;-64
2023/08/04 00:07:35;;;;;;;2.60;0.90;;;24.00;53.70;;;;;;5052941;28;20048;-63
2023/08/04 00:10:02;;;;;;;2.17;1.05;;;23.90;53.60;;;;;;5052701;28;20062;-63
2023/08/04 00:12:28;;;;;;;2.53;1.02;;;23.90;53.60;;;;;;5034107;28;20352;-64
2023/08/04 00:14:54;;;;;;;2.40;0.93;;;23.90;53.60;;;;;;5059325;28;20116;-64
2023/08/04 00:17:20;;;;;;;1.50;1.00;;;23.90;53.60;;;;;;5056922;28;20029;-65
2023/08/04 00:19:47;;;;;;;2.78;1.00;;;23.90;53.60;;;;;;5072271;28;20107;-63
2023/08/04 00:22:13;;;;;;;1.60;1.00;;;23.90;53.60;;;;;;5073124;28;20028;-63
2023/08/04 00:24:39;;;;;;;1.85;1.00;;;23.90;53.60;;;;;;5064609;28;20453;-63
2023/08/04 00:27:06;;;;;;;1.80;0.90;;;23.90;53.60;;;;;;5052848;28;20424;-64
2023/08/04 00:29:32;;;;;;;2.05;1.10;;;23.90;53.60;;;;;;5059447;28;20056;-65
2023/08/04 00:31:58;;;;;;;3.40;1.00;;;23.90;53.70;;;;;;5072711;28;20142;-63
2023/08/04 00:34:24;;;;;;;2.63;0.90;;;23.90;53.60;;;;;;5072587;28;20055;-63
2023/08/04 00:36:50;;;;;;;2.40;0.98;;;23.90;53.70;;;;;;5091778;28;20051;-64
2023/08/04 00:39:17;;;;;;;2.65;1.02;;;23.90;53.70;;;;;;5083500;28;20043;-65
2023/08/04 00:41:43;;;;;;;1.90;0.82;;;23.90;53.70;;;;;;5073807;28;20036;-65
2023/08/04 00:44:10;;;;;;;2.55;0.88;;;23.80;53.60;;;;;;5070499;28;20029;-64
2023/08/04 00:46:36;;;;;;;2.00;1.13;;;23.90;53.70;;;;;;5052271;28;20083;-64
2023/08/04 00:49:05;;;;;;;1.63;0.77;;;23.80;53.70;;;;;;5037472;28;20064;-66
2023/08/04 00:51:32;;;;;;;1.83;0.93;;;23.80;53.80;;;;;;5059618;28;20346;-65
2023/08/04 00:53:59;;;;;;;3.63;1.10;;;23.90;53.90;;;;;;5054264;28;20470;-67
2023/08/04 00:56:28;;;;;;;3.58;0.88;;;23.80;53.90;;;;;;5042965;28;20037;-66
2023/08/04 00:58:54;;;;;;;2.00;1.00;;;23.80;53.90;;;;;;5068431;28;20320;-64
2023/08/04 01:01:20;;;;;;;2.58;1.00;;;23.80;53.90;;;;;;5034943;28;20547;-64
2023/08/04 01:03:47;;;;;;;2.10;1.05;;;23.80;53.90;;;;;;5052079;28;20024;-65
2023/08/04 01:06:51;;;;;;;2.28;0.98;;;23.80;53.90;;;;;;5052836;28;20025;-64
2023/08/04 01:09:29;;;;;;;2.20;1.00;;;23.80;53.90;;;;;;5065476;28;20021;-63
2023/08/04 01:12:43;;;;;;;1.70;0.90;;;23.80;53.90;;;;;;5070001;28;20180;-65
2023/08/04 01:15:28;;;;;;;2.47;1.30;;;23.80;53.90;;;;;;5045748;28;20044;-65
2023/08/04 01:17:55;;;;;;;2.05;0.90;;;23.80;53.90;;;;;;5072398;28;20094;-65
2023/08/04 01:20:22;;;;;;;2.80;1.38;;;23.80;54.00;;;;;;5067779;28;20025;-65
2023/08/04 01:22:49;;;;;;;2.60;0.90;;;23.80;54.00;;;;;;5068117;28;20415;-65
2023/08/04 01:25:15;;;;;;;3.42;0.90;;;23.80;54.00;;;;;;5057112;28;20437;-64
2023/08/04 01:27:43;;;;;;;2.13;0.82;;;23.80;54.00;;;;;;5054730;28;20101;-63
2023/08/04 01:30:29;;;;;;;1.98;0.90;;;23.70;54.60;;;;;;5041556;28;20065;-65
2023/08/04 01:32:57;;;;;;;2.75;1.10;;;23.70;53.90;;;;;;5073851;28;20062;-64
2023/08/04 01:35:23;;;;;;;1.98;1.00;;;23.70;54.00;;;;;;5073895;28;20028;-65
2023/08/04 01:37:49;;;;;;;2.28;1.13;;;23.70;54.00;;;;;;5055822;28;20039;-64
2023/08/04 01:40:15;;;;;;;2.03;1.00;;;23.70;54.00;;;;;;5057787;28;20061;-64
2023/08/04 01:42:41;;;;;;;2.20;1.13;;;23.80;54.10;;;;;;5069609;28;20031;-65
2023/08/04 01:45:08;;;;;;;2.25;1.00;;;23.70;54.10;;;;;;5077662;28;20040;-64
2023/08/04 01:47:34;;;;;;;2.92;1.05;;;23.70;54.10;;;;;;5069304;28;20045;-66
2023/08/04 01:50:00;;;;;;;2.67;1.13;;;23.70;54.20;;;;;;5075929;28;20041;-64
2023/08/04 01:52:27;;;;;;;2.25;0.82;;;23.70;54.20;;;;;;5060059;28;20467;-65
2023/08/04 01:54:53;;;;;;;2.33;1.10;;;23.70;54.20;;;;;;5070349;28;20420;-64
2023/08/04 01:57:19;;;;;;;2.83;1.00;;;23.70;54.20;;;;;;5052792;28;20036;-65
2023/08/04 01:59:45;;;;;;;1.98;0.82;;;23.70;54.20;;;;;;5049976;28;20052;-64
2023/08/04 02:02:11;;;;;;;1.80;0.77;;;23.70;54.30;;;;;;5046033;28;20033;-64
2023/08/04 02:04:38;;;;;;;1.98;0.90;;;23.70;54.90;;;;;;5037391;28;20033;-65
2023/08/04 02:07:04;;;;;;;1.65;0.80;;;23.70;54.30;;;;;;5027469;28;20037;-65
2023/08/04 02:09:30;;;;;;;1.17;0.80;;;23.70;54.30;;;;;;5038173;28;20040;-64
2023/08/04 02:11:57;;;;;;;2.00;1.05;;;23.70;54.30;;;;;;5040768;28;20044;-63
2023/08/04 02:14:23;;;;;;;3.70;1.10;;;23.70;54.30;;;;;;5061402;28;20024;-65
2023/08/04 02:16:50;;;;;;;1.98;1.00;;;23.70;54.30;;;;;;5078612;28;20343;-65
2023/08/04 02:19:16;;;;;;;2.05;0.98;;;23.70;54.30;;;;;;5070349;28;20029;-64
2023/08/04 02:21:42;;;;;;;2.03;0.88;;;23.70;54.30;;;;;;5037607;28;20101;-65
2023/08/04 02:24:08;;;;;;;2.13;0.95;;;23.70;54.40;;;;;;5036986;28;20040;-64
2023/08/04 02:26:34;;;;;;;2.47;1.00;;;23.70;54.40;;;;;;5072383;28;20041;-65
2023/08/04 02:29:00;;;;;;;2.45;0.85;;;23.60;54.30;;;;;;5056420;28;20146;-64
2023/08/04 02:31:28;;;;;;;3.33;1.15;;;23.60;54.40;;;;;;5056566;28;20419;-64
2023/08/04 02:33:54;;;;;;;2.53;0.90;;;23.70;54.50;;;;;;5081085;28;20042;-63
2023/08/04 02:36:21;;;;;;;4.05;1.33;;;23.60;54.40;;;;;;5074546;28;20020;-64
2023/08/04 02:38:47;;;;;;;1.55;0.85;;;23.60;54.40;;;;;;5082853;28;20020;-64
2023/08/04 02:41:13;;;;;;;2.88;1.10;;;23.70;54.50;;;;;;5077698;28;20044;-65
2023/08/04 02:43:40;;;;;;;2.05;0.85;;;23.70;54.50;;;;;;5057251;28;20476;-65
2023/08/04 02:46:08;;;;;;;3.40;1.15;;;23.60;54.40;;;;;;5058270;28;20071;-62
2023/08/04 02:48:34;;;;;;;1.83;1.00;;;23.60;54.40;;;;;;5037473;28;20029;-63
2023/08/04 02:51:05;;;;;;;1.60;0.80;;;23.60;54.40;;;;;;5056425;28;20036;-65
2023/08/04 02:53:32;;;;;;;1.63;0.90;;;23.60;54.40;;;;;;5041944;28;20032;-63
2023/08/04 02:55:58;;;;;;;1.73;1.00;;;23.60;54.40;;;;;;5069394;28;20032;-63
2023/08/04 02:58:26;;;;;;;1.88;1.08;;;23.60;54.40;;;;;;5070822;28;20103;-64
2023/08/04 03:00:53;;;;;;;2.28;0.90;;;23.60;54.40;;;;;;5076946;28;20132;-63
2023/08/04 03:03:19;;;;;;;1.40;0.90;;;23.60;54.40;;;;;;5063602;28;20043;-63
2023/08/04 03:05:46;;;;;;;2.45;1.10;;;23.60;54.40;;;;;;5053690;28;20036;-63
2023/08/04 03:08:11;;;;;;;1.55;0.85;;;23.60;54.40;;;;;;5057343;28;20037;-64
2023/08/04 03:10:42;;;;;;;1.63;0.82;;;23.60;54.40;;;;;;5053264;28;20127;-65
2023/08/04 03:13:10;;;;;;;1.98;1.20;;;23.60;54.40;;;;;;5068898;28;20095;-65
2023/08/04 03:15:36;;;;;;;1.90;0.95;;;23.60;54.40;;;;;;5035779;28;20032;-63
2023/08/04 03:18:03;;;;;;;2.80;1.20;;;23.60;54.40;;;;;;5054057;28;20432;-64
2023/08/04 03:20:30;;;;;;;2.90;0.88;;;23.60;54.40;;;;;;5053287;28;20033;-63
2023/08/04 03:22:58;;;;;;;2.20;0.88;;;23.60;54.40;;;;;;5056114;28;20037;-64
2023/08/04 03:25:24;;;;;;;1.67;1.10;;;23.60;54.40;;;;;;5066567;28;20102;-65
2023/08/04 03:27:49;;;;;;;2.75;1.10;;;23.50;54.40;;;;;;5073397;28;20423;-65
2023/08/04 03:30:15;;;;;;;1.90;1.05;;;23.60;54.50;;;;;;5053539;28;20078;-65
2023/08/04 03:32:41;;;;;;;3.47;1.00;;;23.60;54.50;;;;;;5056749;28;20028;-64
2023/08/04 03:35:07;;;;;;;2.65;1.10;;;23.60;54.60;;;;;;5053398;28;20028;-63
2023/08/04 03:37:34;;;;;;;1.77;0.93;;;23.60;54.60;;;;;;5056759;28;20352;-64
2023/08/04 03:40:00;;;;;;;3.53;1.10;;;23.60;54.60;;;;;;5082202;28;20048;-63
2023/08/04 03:42:26;;;;;;;3.05;1.20;;;23.60;54.60;;;;;;5078838;28;20029;-64
2023/08/04 03:44:52;;;;;;;2.15;1.13;;;23.60;54.60;;;;;;5038388;28;20109;-64
2023/08/04 03:47:17;;;;;;;2.13;0.95;;;23.50;54.50;;;;;;5051724;28;20049;-65
2023/08/04 03:49:43;;;;;;;2.42;1.00;;;23.50;54.60;;;;;;5053356;28;20132;-65
2023/08/04 03:52:09;;;;;;;1.90;1.05;;;23.50;54.50;;;;;;5052411;28;20029;-64
2023/08/04 03:54:35;;;;;;;1.85;1.10;;;23.50;55.20;;;;;;5059458;28;20025;-64
2023/08/04 03:57:01;;;;;;;3.05;1.30;;;23.50;54.50;;;;;;5074184;28;20052;-64
2023/08/04 03:59:27;;;;;;;3.00;1.25;;;23.50;54.50;;;;;;5074897;28;20044;-65
2023/08/04 04:01:53;;;;;;;3.67;1.33;;;23.50;54.50;;;;;;5072143;28;20158;-66
2023/08/04 04:04:19;;;;;;;2.50;1.17;;;23.50;54.50;;;;;;5064010;28;20380;-64
2023/08/04 04:06:44;;;;;;;2.70;1.40;;;23.50;54.60;;;;;;5052489;28;20120;-63
2023/08/04 04:09:11;;;;;;;3.05;1.20;;;23.50;54.60;;;;;;5053183;28;20432;-63
2023/08/04 04:11:37;;;;;;;2.75;1.38;;;23.50;54.60;;;;;;5052395;28;20384;-65
2023/08/04 04:14:03;;;;;;;2.65;0.98;;;23.50;54.60;;;;;;5058534;28;20032;-64
2023/08/04 04:16:30;;;;;;;2.50;1.42;;;23.50;54.70;;;;;;5089203;28;20030;-66
2023/08/04 04:18:56;;;;;;;2.25;1.00;;;23.50;54.60;;;;;;5086792;28;20133;-65
2023/08/04 04:21:22;;;;;;;2.47;0.93;;;23.50;54.70;;;;;;5052328;28;20078;-62
2023/08/04 04:23:48;;;;;;;1.63;1.00;;;23.50;54.70;;;;;;5055079;28;20104;-64
2023/08/04 04:26:15;;;;;;;2.60;1.00;;;23.50;54.70;;;;;;5052086;28;20076;-64
2023/08/04 04:28:41;;;;;;;3.45;1.23;;;23.50;54.70;;;;;;5067670;28;20060;-65
2023/08/04 04:31:07;;;;;;;2.55;1.23;;;23.50;54.70;;;;;;5082320;28;20039;-64
2023/08/04 04:33:33;;;;;;;2.55;1.50;;;23.50;54.70;;;;;;5057433;28;20111;-64
2023/08/04 04:35:59;;;;;;;2.88;1.20;;;23.50;54.80;;;;;;5052353;28;20067;-64
2023/08/04 04:38:27;;;;;;;3.30;1.50;;;23.50;54.80;;;;;;5051984;28;20033;-64
2023/08/04 04:41:01;;;;;;;2.83;1.40;;;23.50;54.80;;;;;;5057946;28;20081;-65
2023/08/04 04:43:28;;;;;;;1.48;0.90;;;23.50;54.80;;;;;;5061197;28;20304;-65
2023/08/04 04:45:54;;;;;;;4.35;1.30;;;23.40;54.80;;;;;;5074650;28;20076;-64
2023/08/04 04:48:21;;;;;;;2.38;1.10;;;23.50;54.80;;;;;;5058335;28;20115;-66
2023/08/04 04:50:47;;;;;;;3.78;1.42;;;23.40;54.80;;;;;;5063656;28;20502;-64
2023/08/04 04:53:13;;;;;;;3.00;1.10;;;23.50;54.90;;;;;;5051949;28;20052;-63
2023/08/04 04:55:39;;;;;;;2.55;1.10;;;23.50;54.80;;;;;;5061304;28;20107;-64
2023/08/04 04:58:05;;;;;;;2.42;1.00;;;23.50;54.90;;;;;;5051797;28;20468;-64
2023/08/04 05:00:34;;;;;;;3.03;1.02;;;23.50;54.90;;;;;;5063233;28;20107;-63
2023/08/04 05:03:01;;;;;;;2.30;1.20;;;23.50;54.90;;;;;;5092205;28;20028;-66
2023/08/04 05:05:28;;;;;;;3.40;1.17;;;23.50;54.90;;;;;;5069407;28;20032;-63
2023/08/04 05:07:54;;;;;;;2.38;1.17;;;23.50;54.90;;;;;;5085907;28;20442;-65
2023/08/04 05:10:20;;;;;;;2.08;1.17;;;23.50;55.00;;;;;;5044147;28;20071;-64
2023/08/04 05:12:46;;;;;;;1.75;1.23;;;23.40;54.90;;;;;;5065821;28;20363;-64
2023/08/04 05:15:12;;;;;;;2.88;1.00;;;23.50;55.00;;;;;;5069497;28;20190;-65
2023/08/04 05:17:38;;;;;;;5.03;1.10;;;23.50;55.00;;;;;;5051731;28;20033;-65
2023/08/04 05:20:06;;;;;;;2.33;1.00;;;23.40;55.60;;;;;;5051398;28;20143;-64
2023/08/04 05:22:32;;;;;;;2.13;1.30;;;23.50;55.00;;;;;;5051708;28;20029;-63
2023/08/04 05:24:58;;;;;;;2.25;1.13;;;23.50;55.10;;;;;;5078799;28;20115;-65
2023/08/04 05:27:24;;;;;;;2.38;1.15;;;23.40;55.00;;;;;;5035937;28;20426;-64
2023/08/04 05:29:49;;;;;;;1.83;0.98;;;23.50;55.10;;;;;;5067877;28;20036;-64
2023/08/04 05:32:15;;;;;;;2.40;1.00;;;23.50;55.10;;;;;;5074833;28;20395;-65
2023/08/04 05:34:41;;;;;;;2.13;1.10;;;23.40;55.00;;;;;;5066978;28;20048;-64
2023/08/04 05:37:07;;;;;;;1.55;0.82;;;23.50;55.70;;;;;;5049220;28;20098;-64
2023/08/04 05:39:33;;;;;;;1.73;0.88;;;23.50;55.10;;;;;;5071312;28;20161;-63
2023/08/04 05:41:59;;;;;;;3.85;1.30;;;23.40;55.30;;;;;;5064402;28;20033;-63
2023/08/04 05:44:25;;;;;;;1.58;0.95;;;23.40;55.10;;;;;;5058174;28;20028;-63
2023/08/04 05:46:51;;;;;;;1.83;0.90;;;23.50;55.10;;;;;;5060479;28;20105;-63
2023/08/04 05:49:18;;;;;;;2.63;0.95;;;23.50;55.10;;;;;;5051225;28;20085;-64
2023/08/04 05:51:45;;;;;;;1.67;0.90;;;23.50;55.10;;;;;;5066459;28;20033;-64
2023/08/04 05:54:11;;;;;;;2.92;0.90;;;23.50;55.10;;;;;;5066748;28;20035;-63
2023/08/04 05:56:37;;;;;;;1.52;0.70;;;23.40;55.00;;;;;;5057219;28;20065;-63
2023/08/04 05:59:03;;;;;;;1.45;0.77;;;23.50;55.10;;;;;;5068337;28;20082;-63
2023/08/04 06:01:29;;;;;;;1.77;0.80;;;23.50;55.10;;;;;;5070031;28;20032;-64
2023/08/04 06:03:55;;;;;;;1.70;0.70;;;23.50;55.00;;;;;;5053279;28;20032;-65
2023/08/04 06:06:21;;;;;;;1.05;0.70;;;23.50;55.00;;;;;;5050638;28;20405;-64
2023/08/04 06:08:47;;;;;;;1.15;0.70;;;23.50;55.00;;;;;;5051246;28;20032;-66
2023/08/04 06:11:14;;;;;;;1.52;0.70;;;23.50;55.00;;;;;;5038405;28;20318;-62
2023/08/04 06:13:40;;;;;;;1.85;0.90;;;23.50;55.10;;;;;;5046758;28;20070;-63
2023/08/04 06:16:06;;;;;;;1.73;0.70;;;23.50;55.10;;;;;;5093993;28;20031;-64
2023/08/04 06:18:32;;;;;;;1.75;0.90;;;23.50;55.10;;;;;;5074907;28;20108;-63
2023/08/04 06:20:58;;;;;;;1.73;0.90;;;23.50;55.10;;;;;;5056655;28;20400;-63
2023/08/04 06:23:24;;;;;;;0.80;0.80;;;23.50;55.10;;;;;;5052812;28;20064;-63
2023/08/04 06:25:50;;;;;;;2.35;0.80;;;23.50;55.10;;;;;;5059790;28;20043;-64
2023/08/04 06:28:16;;;;;;;2.10;0.85;;;23.50;55.10;;;;;;5053748;28;20040;-65
2023/08/04 06:30:42;;;;;;;3.38;0.90;;;23.50;55.10;;;;;;5074996;28;20531;-62
2023/08/04 06:33:09;;;;;;;1.88;0.80;;;23.50;55.20;;;;;;5084632;28;20056;-63
2023/08/04 06:35:35;;;;;;;2.25;0.70;;;23.50;55.20;;;;;;5072514;28;20110;-63
2023/08/04 06:38:02;;;;;;;2.00;0.80;;;23.60;55.90;;;;;;5077123;28;20036;-65
2023/08/04 06:40:29;;;;;;;1.10;0.77;;;23.60;55.40;;;;;;5055426;28;20103;-65
2023/08/04 06:42:55;;;;;;;1.77;0.73;;;23.60;55.40;;;;;;5070602;28;20484;-64
2023/08/04 06:45:21;;;;;;;1.45;0.85;;;23.60;55.40;;;;;;5070401;28;20075;-64
2023/08/04 06:47:47;;;;;;;1.90;0.77;;;23.60;55.40;;;;;;5073949;28;20076;-64
2023/08/04 06:50:13;;;;;;;2.63;0.95;;;23.60;55.40;;;;;;5089472;28;20039;-62
2023/08/04 06:52:39;;;;;;;1.98;0.90;;;23.60;55.40;;;;;;5074432;28;20032;-62
2023/08/04 06:55:06;;;;;;;2.22;0.85;;;23.60;55.40;;;;;;5092604;28;20360;-62
2023/08/04 06:57:32;;;;;;;1.67;0.90;;;23.60;55.40;;;;;;5073467;28;20141;-62
2023/08/04 06:59:58;;;;;;;1.55;0.85;;;23.60;55.40;;;;;;5036599;28;20032;-63
2023/08/04 07:02:24;;;;;;;1.13;0.70;;;23.60;55.40;;;;;;5064224;28;20025;-62
2023/08/04 07:04:50;;;;;;;0.98;0.75;;;23.60;55.40;;;;;;5043809;28;20029;-64
2023/08/04 07:07:17;;;;;;;1.05;0.73;;;23.70;55.40;;;;;;5078733;28;20029;-65
2023/08/04 07:09:42;;;;;;;2.15;0.70;;;23.60;55.40;;;;;;5078652;28;20350;-65
2023/08/04 07:12:08;;;;;;;2.67;0.98;;;23.70;55.40;;;;;;5077756;28;20021;-64
2023/08/04 07:14:34;;;;;;;1.05;0.70;;;23.70;55.40;;;;;;5062152;28;20392;-64
2023/08/04 07:17:00;;;;;;;1.80;0.70;;;23.70;55.30;;;;;;5053877;28;20039;-60
2023/08/04 07:19:26;;;;;;;1.10;0.70;;;23.70;55.30;;;;;;5076153;28;20025;-61
2023/08/04 07:21:52;;;;;;;2.17;0.90;;;23.70;55.30;;;;;;5073407;28;20355;-61
2023/08/04 07:24:18;;;;;;;2.83;0.98;;;23.70;55.30;;;;;;5078128;28;20035;-61
2023/08/04 07:26:44;;;;;;;1.25;0.60;;;23.70;55.30;;;;;;5073138;28;20120;-61
2023/08/04 07:29:10;;;;;;;2.35;0.90;;;23.70;55.90;;;;;;5073518;28;20142;-59
2023/08/04 07:31:36;;;;;;;1.10;0.60;;;23.80;55.40;;;;;;5055831;28;20032;-64
2023/08/04 07:34:02;;;;;;;1.67;0.75;;;23.80;55.40;;;;;;5077974;28;20346;-62
2023/08/04 07:36:27;;;;;;;1.45;0.70;;;23.80;55.30;;;;;;5060965;28;20403;-62
2023/08/04 07:38:54;;;;;;;1.10;0.70;;;23.80;55.30;;;;;;5079471;28;20056;-61
2023/08/04 07:41:26;;;;;;;1.45;0.70;;;23.80;55.30;;;;;;5078612;28;20074;-61
2023/08/04 07:43:53;;;;;;;1.80;0.90;;;23.90;55.30;;;;;;5070913;28;20032;-64
2023/08/04 07:46:29;;;;;;;1.48;0.80;;;23.90;55.30;;;;;;5082556;28;20116;-62
2023/08/04 07:48:55;;;;;;;1.33;0.85;;;23.90;55.20;;;;;;5080559;28;20114;-61
2023/08/04 07:51:22;;;;;;;1.75;0.90;;;23.90;55.10;;;;;;5069955;28;20079;-64
2023/08/04 07:53:48;;;;;;;1.02;0.70;;;23.90;55.00;;;;;;5063741;28;20051;-64
2023/08/04 07:56:14;;;;;;;1.20;0.70;;;23.90;55.00;;;;;;5049452;28;20432;-65
2023/08/04 07:58:40;;;;;;;2.58;0.70;;;23.90;55.00;;;;;;5066237;28;20061;-63
2023/08/04 08:01:06;;;;;;;2.35;0.93;;;23.90;54.90;;;;;;5081619;28;20099;-65
2023/08/04 08:03:33;;;;;;;2.35;0.88;;;23.90;54.90;;;;;;5064022;28;20135;-63
2023/08/04 08:06:00;;;;;;;1.75;0.93;;;24.00;54.90;;;;;;5066587;28;20304;-64
2023/08/04 08:08:27;;;;;;;2.70;1.05;;;24.00;54.90;;;;;;5067136;28;20119;-65
2023/08/04 08:10:54;;;;;;;1.15;0.70;;;23.90;54.80;;;;;;5071284;28;20043;-64
2023/08/04 08:13:20;;;;;;;2.30;0.90;;;24.00;54.80;;;;;;5074422;28;20021;-65
2023/08/04 08:15:47;;;;;;;1.63;0.80;;;24.00;54.80;;;;;;5075614;28;20055;-64
2023/08/04 08:18:13;;;;;;;3.70;0.70;;;24.00;54.80;;;;;;5070105;28;20336;-65
2023/08/04 08:20:41;;;;;;;2.17;1.00;;;24.00;54.70;;;;;;5073248;28;20107;-65
2023/08/04 08:23:07;;;;;;;1.65;0.82;;;24.00;54.70;;;;;;5082165;28;20050;-65
2023/08/04 08:25:35;;;;;;;2.88;0.90;;;24.00;54.60;;;;;;5092156;28;20024;-64
2023/08/04 08:28:02;;;;;;;1.38;0.68;;;24.00;54.60;;;;;;5092623;28;20064;-65
2023/08/04 08:30:28;;;;;;;2.00;0.95;;;24.00;54.60;;;;;;5089618;28;20024;-63
2023/08/04 08:32:54;;;;;;;1.30;0.80;;;24.00;54.50;;;;;;5092296;28;20111;-65
2023/08/04 08:35:20;;;;;;;1.63;0.60;;;24.00;54.50;;;;;;5089000;28;20116;-65
2023/08/04 08:37:46;;;;;;;0.90;0.52;;;24.00;54.40;;;;;;5092575;28;20048;-65
2023/08/04 08:40:12;;;;;;;2.25;0.70;;;24.00;54.30;;;;;;5092577;28;20502;-65
2023/08/04 08:42:38;;;;;;;1.92;0.80;;;24.00;54.30;;;;;;5092023;28;20036;-63
2023/08/04 08:45:05;;;;;;;1.65;0.95;;;24.00;54.20;;;;;;5068597;28;20037;-64
2023/08/04 08:47:36;;;;;;;1.40;0.60;;;24.10;54.20;;;;;;5071837;28;20128;-65
2023/08/04 08:50:04;;;;;;;1.92;0.77;;;24.00;54.00;;;;;;5085937;28;20059;-65
2023/08/04 08:52:35;;;;;;;2.78;0.80;;;24.00;54.00;;;;;;5091204;28;20169;-65
2023/08/04 08:55:03;;;;;;;2.08;0.82;;;24.10;53.90;;;;;;5074005;28;20040;-65
2023/08/04 08:57:30;;;;;;;0.90;0.55;;;24.10;53.90;;;;;;5092075;28;20036;-64
2023/08/04 09:00:00;;;;;;;1.00;0.60;;;24.10;53.80;;;;;;5085866;28;20021;-65
2023/08/04 09:02:26;;;;;;;1.52;0.75;;;24.10;53.80;;;;;;5071943;28;20032;-63
2023/08/04 09:04:52;;;;;;;1.10;0.70;;;24.10;53.80;;;;;;5048386;28;20391;-63
2023/08/04 09:07:18;;;;;;;1.73;0.80;;;24.10;53.60;;;;;;5050676;28;20633;-65
2023/08/04 09:09:46;;;;;;;0.88;0.60;;;24.10;53.60;;;;;;5066972;28;20064;-63
2023/08/04 09:12:12;;;;;;;1.88;0.70;;;24.20;53.60;;;;;;5068953;28;20040;-63
2023/08/04 09:14:55;;;;;;;2.20;0.45;;;24.10;53.40;;;;;;5077440;28;20032;-62
2023/08/04 09:17:36;;;;;;;1.85;0.60;;;24.20;53.40;;;;;;5064689;28;20040;-65
2023/08/04 09:20:07;;;;;;;1.35;0.60;;;24.20;53.40;;;;;;5077459;28;20040;-62
2023/08/04 09:22:46;;;;;;;1.80;0.73;;;24.20;53.40;;;;;;5074580;28;20089;-62
2023/08/04 09:25:12;;;;;;;1.10;0.60;;;24.20;53.40;;;;;;5070856;28;20105;-64
2023/08/04 09:27:41;;;;;;;1.52;0.70;;;24.20;53.40;;;;;;5071833;28;20044;-63
2023/08/04 09:30:09;;;;;;;1.65;0.50;;;24.30;53.40;;;;;;5070533;28;20025;-62
2023/08/04 09:32:50;;;;;;;1.65;0.50;;;24.20;53.30;;;;;;5073053;28;20531;-65
2023/08/04 09:35:16;;;;;;;1.05;0.60;;;24.30;53.30;;;;;;5070079;28;20122;-65
2023/08/04 09:37:42;;;;;;;2.15;0.40;;;24.30;53.30;;;;;;5070216;28;20394;-63
2023/08/04 09:40:16;;;;;;;0.90;0.60;;;24.30;53.20;;;;;;5054236;28;20067;-66
2023/08/04 09:42:42;;;;;;;;;;;24.30;53.10;;;;;;5067667;28;20147;-65
2023/08/04 09:45:13;;;;;;;1.50;0.65;;;24.30;53.00;;;;;;5075231;28;20054;-65
2023/08/04 09:47:39;;;;;;;0.95;0.60;;;24.30;52.80;;;;;;5079413;28;20358;-65
2023/08/04 09:50:10;;;;;;;0.98;0.50;;;24.40;52.70;;;;;;5083644;28;20173;-64
2023/08/04 09:52:36;;;;;;;0.90;0.50;;;24.40;52.50;;;;;;5080623;28;20080;-65
2023/08/04 09:55:02;;;;;;;0.80;0.40;;;24.40;52.40;;;;;;5078078;28;20032;-63
2023/08/04 09:57:29;;;;;;;1.50;0.47;;;24.40;52.30;;;;;;5074816;28;20166;-63
2023/08/04 09:59:56;;;;;;;0.73;0.40;;;24.40;52.20;;;;;;5073520;28;20575;-63
2023/08/04 10:02:21;;;;;;;1.33;0.50;;;24.40;52.20;;;;;;5067023;28;20043;-64
2023/08/04 10:04:49;;;;;;;0.65;0.40;;;24.40;52.10;;;;;;5064727;28;20032;-64
2023/08/04 10:07:19;;;;;;;2.30;0.50;;;24.40;52.00;;;;;;5061328;28;20422;-65
2023/08/04 10:09:47;;;;;;;1.00;0.50;;;24.50;52.00;;;;;;5041568;28;20047;-65
2023/08/04 10:12:14;;;;;;;0.50;0.30;;;24.50;52.00;;;;;;5057921;28;20043;-65
2023/08/04 10:14:41;;;;;;;1.35;0.70;;;24.50;51.90;;;;;;5073500;28;20407;-65
2023/08/04 10:17:08;;;;;;;1.02;0.60;;;24.50;51.80;;;;;;5075994;28;20039;-64
2023/08/04 10:19:35;;;;;;;1.02;0.50;;;24.50;51.80;;;;;;5071625;28;20429;-65
2023/08/04 10:22:06;;;;;;;1.27;0.65;;;24.50;51.70;;;;;;5073893;28;20024;-66
2023/08/04 10:24:37;;;;;;;1.50;0.70;;;24.50;51.60;;;;;;5058647;28;20020;-68
2023/08/04 10:27:20;;;;;;;0.65;0.30;;;24.50;51.50;;;;;;5054114;28;20055;-67
2023/08/04 10:30:09;;;;;;;0.90;0.68;;;24.50;51.40;;;;;;5074213;28;20024;-65
2023/08/04 10:32:36;;;;;;;0.60;0.43;;;24.50;51.40;;;;;;5071804;28;20138;-64
2023/08/04 10:35:18;;;;;;;0.90;0.60;;;24.50;51.40;;;;;;5072187;28;20080;-66
2023/08/04 10:37:55;;;;;;;0.65;0.50;;;24.60;51.40;;;;;;5069597;28;20047;-65
2023/08/04 10:40:32;;;;;;;1.17;0.57;;;24.60;51.30;;;;;;5076807;28;20123;-63
2023/08/04 10:43:05;;;;;;;0.68;0.47;;;24.60;51.20;;;;;;5084898;28;20118;-65
2023/08/04 10:45:55;;;;;;;0.98;0.45;;;24.60;51.10;;;;;;5074220;28;20072;-65
2023/08/04 10:48:22;;;;;;;0.45;0.40;;;24.60;51.00;;;;;;5075672;28;20067;-64
2023/08/04 10:50:51;;;;;;;0.25;0.25;;;24.60;51.00;;;;;;5078025;28;20115;-65
2023/08/04 10:53:17;;;;;;;0.73;0.30;;;24.60;50.90;;;;;;5078875;28;20028;-66
2023/08/04 10:55:57;;;;;;;0.70;0.50;;;24.60;50.80;;;;;;5068182;28;20036;-65
2023/08/04 10:58:24;;;;;;;0.63;0.30;;;24.60;50.70;;;;;;5071900;28;20036;-63
2023/08/04 11:00:52;;;;;;;1.48;0.50;;;24.60;50.60;;;;;;5073500;28;20031;-59
2023/08/04 11:03:21;;;;;;;1.30;0.63;;;24.70;50.80;;;;;;5087389;28;20032;-62
2023/08/04 11:05:49;;;;;;;2.08;0.50;;;24.70;50.90;;;;;;5080201;28;20036;-61
2023/08/04 11:08:16;;;;;;;1.67;0.50;;;24.70;51.10;;;;;;5066097;28;20067;-62
2023/08/04 11:10:50;;;;;;;3.63;0.68;;;24.70;51.30;;;;;;5081420;28;20024;-63
2023/08/04 11:13:18;;;;;;;1.17;0.70;;;24.70;51.60;;;;;;5066681;28;20120;-62
2023/08/04 11:15:45;;;;;;;2.53;0.60;;;24.80;51.70;;;;;;5062674;28;20035;-63
2023/08/04 11:18:23;;;;;;;1.67;0.68;;;24.80;51.80;;;;;;5055349;28;20375;-65
2023/08/04 11:20:49;;;;;;;2.05;0.68;;;24.80;51.80;;;;;;5074742;28;20040;-64
2023/08/04 11:23:24;;;;;;;1.27;0.88;;;24.90;51.80;;;;;;5078109;28;20042;-65
2023/08/04 11:25:50;;;;;;;1.05;0.50;;;24.90;51.80;;;;;;5070090;28;20038;-65
2023/08/04 11:28:18;;;;;;;1.23;0.50;;;24.90;51.80;;;;;;5076978;28;20323;-64
2023/08/04 11:30:44;;;;;;;1.60;0.80;;;24.90;51.80;;;;;;5082291;28;20124;-63
2023/08/04 11:33:09;;;;;;;0.80;0.50;;;24.90;51.70;;;;;;5070415;28;20179;-66
2023/08/04 11:35:35;;;;;;;1.35;0.60;;;25.00;51.70;;;;;;5065783;28;20105;-65
2023/08/04 11:38:03;;;;;;;1.52;0.70;;;25.00;51.60;;;;;;5062715;28;20021;-64
2023/08/04 11:40:30;;;;;;;0.75;0.40;;;25.10;51.60;;;;;;5049208;28;20046;-64
2023/08/04 11:43:00;;;;;;;0.98;0.60;;;25.20;51.50;;;;;;5054728;28;20025;-64
2023/08/04 11:45:30;;;;;;;1.40;0.60;;;25.30;51.40;;;;;;5069004;28;20048;-63
2023/08/04 11:47:56;;;;;;;1.85;0.75;;;25.40;51.20;;;;;;5049096;28;20127;-66
2023/08/04 11:50:24;;;;;;;0.85;0.60;;;25.50;51.00;;;;;;5042625;28;20036;-63
2023/08/04 11:52:50;;;;;;;1.30;0.50;;;25.50;50.80;;;;;;5043557;28;20038;-62
2023/08/04 11:55:17;;;;;;;0.73;0.40;;;25.60;50.60;;;;;;5064543;28;20041;-61
2023/08/04 11:57:49;;;;;;;2.58;0.60;;;25.70;50.40;;;;;;5066342;28;20145;-63
2023/08/04 12:00:15;;;;;;;0.80;0.47;;;25.80;50.30;;;;;;5062825;28;20483;-62
2023/08/04 12:02:57;;;;;;;1.52;0.70;;;25.80;50.20;;;;;;5037090;28;20060;-64
2023/08/04 12:05:30;;;;;;;0.73;0.50;;;25.80;50.10;;;;;;5074237;28;20039;-65
2023/08/04 12:07:57;;;;;;;1.33;0.68;;;25.80;50.00;;;;;;5057897;28;20044;-63
2023/08/04 12:10:23;;;;;;;1.00;0.60;;;25.80;50.10;;;;;;5058705;28;20134;-63
2023/08/04 12:12:50;;;;;;;1.40;0.80;;;25.80;50.20;;;;;;5065171;28;20544;-65
2023/08/04 12:15:16;;;;;;;1.15;0.52;;;25.70;50.20;;;;;;5069677;28;20036;-64
2023/08/04 12:17:43;;;;;;;3.95;0.60;;;25.80;50.30;;;;;;5060637;28;20090;-64
2023/08/04 12:20:11;;;;;;;1.50;0.70;;;25.70;50.30;;;;;;5060611;28;21008;-65
2023/08/04 12:22:38;;;;;;;1.63;0.80;;;25.70;50.40;;;;;;5044236;28;20037;-64
2023/08/04 12:25:08;;;;;;;1.75;0.60;;;25.70;50.60;;;;;;5067839;28;20440;-64
2023/08/04 12:27:35;;;;;;;0.90;0.65;;;25.70;50.60;;;;;;5065604;28;20052;-65
2023/08/04 12:30:05;;;;;;;1.15;0.50;;;25.60;50.60;;;;;;5079532;28;20024;-64
2023/08/04 12:32:31;;;;;;;1.52;0.80;;;25.60;50.50;;;;;;5068717;28;20052;-64
2023/08/04 12:34:57;;;;;;;1.30;0.75;;;25.70;50.50;;;;;;5063787;28;20075;-66
2023/08/04 12:37:27;;;;;;;1.35;0.70;;;25.60;50.40;;;;;;5069706;28;20099;-66
2023/08/04 12:39:53;;;;;;;1.52;0.57;;;25.60;50.30;;;;;;5048114;28;20037;-64
2023/08/04 12:42:19;;;;;;;0.80;0.60;;;25.60;50.20;;;;;;5062709;28;20035;-66
2023/08/04 12:44:45;;;;;;;1.38;0.70;;;25.60;50.00;;;;;;5061238;28;20112;-65
2023/08/04 12:47:11;;;;;;;0.90;0.43;;;25.60;50.00;;;;;;5042785;28;20087;-64
2023/08/04 12:49:37;;;;;;;0.77;0.70;;;25.60;50.10;;;;;;5062874;28;20041;-64